sensor_id;sensor_type;location;lat;lon;timestamp;temperature;humidity
18876;DHT22;9570;50.854;13.778;2022-10-14T00:01:34;10.70;99.90
18876;DHT22;9570;50.854;13.778;2022-10-14T00:04:00;10.70;99.90
18876;DHT22;9570;50.854;13.778;2022-10-14T00:06:31;10.70;99.90
18876;DHT22;9570;50.854;13.778;2022-10-14T00:09:02;10.70;99.90
18876;DHT22;9570;50.854;13.778;2022-10-14T00:11:30;10.80;99.90
18876;DHT22;9570;50.854;13.778;2022-10-14T00:14:07;10.80;99.90
18876;DHT22;9570;50.854;13.778;2022-10-14T00:16:36;10.80;99.90
18876;DHT22;9570;50.854;13.778;2022-10-14T00:19:04;10.90;99.90
18876;DHT22;9570;50.854;13.778;2022-10-14T00:21:30;10.90;99.90
18876;DHT22;9570;50.854;13.778;2022-10-14T00:23:57;10.90;99.90
18876;DHT22;9570;50.854;13.778;2022-10-14T00:26:30;10.90;99.90
18876;DHT22;9570;50.854;13.778;2022-10-14T00:28:56;10.90;99.90
18876;DHT22;9570;50.854;13.778;2022-10-14T00:31:22;10.80;99.90
18876;DHT22;9570;50.854;13.778;2022-10-14T00:33:48;10.80;99.90
18876;DHT22;9570;50.854;13.778;2022-10-14T00:36:15;10.80;99.90
18876;DHT22;9570;50.854;13.778;2022-10-14T00:38:41;10.80;99.90
18876;DHT22;9570;50.854;13.778;2022-10-14T00:41:11;10.80;99.90
18876;DHT22;9570;50.854;13.778;2022-10-14T00:46:26;10.90;99.90
18876;DHT22;9570;50.854;13.778;2022-10-14T00:48:52;10.90;99.90
18876;DHT22;9570;50.854;13.778;2022-10-14T00:51:19;10.90;99.90
18876;DHT22;9570;50.854;13.778;2022-10-14T00:53:45;10.90;99.90
18876;DHT22;9570;50.854;13.778;2022-10-14T00:56:14;11.00;99.90
18876;DHT22;9570;50.854;13.778;2022-10-14T00:58:40;10.90;99.90
18876;DHT22;9570;50.854;13.778;2022-10-14T01:01:07;10.90;99.90
18876;DHT22;9570;50.854;13.778;2022-10-14T01:03:33;10.90;99.90
18876;DHT22;9570;50.854;13.778;2022-10-14T01:11:19;11.00;99.90
18876;DHT22;9570;50.854;13.778;2022-10-14T01:13:55;11.00;99.90
18876;DHT22;9570;50.854;13.778;2022-10-14T01:16:36;11.00;99.90
18876;DHT22;9570;50.854;13.778;2022-10-14T01:27:11;11.00;99.90
18876;DHT22;9570;50.854;13.778;2022-10-14T01:35:25;11.00;99.90
18876;DHT22;9570;50.854;13.778;2022-10-14T01:38:00;11.00;99.90
18876;DHT22;9570;50.854;13.778;2022-10-14T01:40:38;11.00;99.90
18876;DHT22;9570;50.854;13.778;2022-10-14T01:43:05;10.80;99.90
18876;DHT22;9570;50.854;13.778;2022-10-14T01:45:33;10.80;99.90
18876;DHT22;9570;50.854;13.778;2022-10-14T01:48:01;10.90;99.90
18876;DHT22;9570;50.854;13.778;2022-10-14T01:50:28;10.90;99.90
18876;DHT22;9570;50.854;13.778;2022-10-14T01:53:00;10.90;99.90
18876;DHT22;9570;50.854;13.778;2022-10-14T01:55:31;10.90;99.90
18876;DHT22;9570;50.854;13.778;2022-10-14T01:57:59;10.90;99.90
18876;DHT22;9570;50.854;13.778;2022-10-14T02:00:25;10.80;99.90
18876;DHT22;9570;50.854;13.778;2022-10-14T02:02:51;10.90;99.90
18876;DHT22;9570;50.854;13.778;2022-10-14T02:05:21;10.90;99.90
18876;DHT22;9570;50.854;13.778;2022-10-14T02:07:56;10.90;99.90
18876;DHT22;9570;50.854;13.778;2022-10-14T02:10:50;10.90;99.90
18876;DHT22;9570;50.854;13.778;2022-10-14T02:22:31;10.90;99.90
18876;DHT22;9570;50.854;13.778;2022-10-14T02:24:59;11.00;99.90
18876;DHT22;9570;50.854;13.778;2022-10-14T02:27:27;11.00;99.90
18876;DHT22;9570;50.854;13.778;2022-10-14T02:29:54;10.90;99.90
18876;DHT22;9570;50.854;13.778;2022-10-14T02:32:23;10.90;99.90
18876;DHT22;9570;50.854;13.778;2022-10-14T02:34:53;11.00;99.90
18876;DHT22;9570;50.854;13.778;2022-10-14T02:37:21;11.00;99.90
18876;DHT22;9570;50.854;13.778;2022-10-14T02:39:54;11.00;99.90
18876;DHT22;9570;50.854;13.778;2022-10-14T02:42:20;11.00;99.90
18876;DHT22;9570;50.854;13.778;2022-10-14T02:44:54;11.00;99.90
18876;DHT22;9570;50.854;13.778;2022-10-14T02:47:20;11.00;99.90
18876;DHT22;9570;50.854;13.778;2022-10-14T02:49:46;11.00;99.90
18876;DHT22;9570;50.854;13.778;2022-10-14T02:52:11;11.00;99.90
18876;DHT22;9570;50.854;13.778;2022-10-14T02:54:37;11.00;99.90
18876;DHT22;9570;50.854;13.778;2022-10-14T02:57:03;10.90;99.90
18876;DHT22;9570;50.854;13.778;2022-10-14T02:59:28;10.90;99.90
18876;DHT22;9570;50.854;13.778;2022-10-14T03:01:54;10.90;99.90
18876;DHT22;9570;50.854;13.778;2022-10-14T03:04:19;10.90;99.90
18876;DHT22;9570;50.854;13.778;2022-10-14T03:06:45;10.90;99.90
18876;DHT22;9570;50.854;13.778;2022-10-14T03:09:10;11.00;99.90
18876;DHT22;9570;50.854;13.778;2022-10-14T03:11:36;11.00;99.90
18876;DHT22;9570;50.854;13.778;2022-10-14T03:14:01;11.00;99.90
18876;DHT22;9570;50.854;13.778;2022-10-14T03:16:27;11.00;99.90
18876;DHT22;9570;50.854;13.778;2022-10-14T03:18:52;11.10;99.90
18876;DHT22;9570;50.854;13.778;2022-10-14T03:21:18;11.00;99.90
18876;DHT22;9570;50.854;13.778;2022-10-14T03:23:43;11.10;99.90
18876;DHT22;9570;50.854;13.778;2022-10-14T03:26:09;11.10;99.90
18876;DHT22;9570;50.854;13.778;2022-10-14T03:28:34;11.10;99.90
18876;DHT22;9570;50.854;13.778;2022-10-14T03:31:00;11.10;99.90
18876;DHT22;9570;50.854;13.778;2022-10-14T03:33:25;11.10;99.90
18876;DHT22;9570;50.854;13.778;2022-10-14T03:35:51;11.10;99.90
18876;DHT22;9570;50.854;13.778;2022-10-14T03:38:16;11.10;99.90
18876;DHT22;9570;50.854;13.778;2022-10-14T03:40:42;11.10;99.90
18876;DHT22;9570;50.854;13.778;2022-10-14T03:43:08;11.10;99.90
18876;DHT22;9570;50.854;13.778;2022-10-14T03:45:34;11.10;99.90
18876;DHT22;9570;50.854;13.778;2022-10-14T03:47:59;11.10;99.90
18876;DHT22;9570;50.854;13.778;2022-10-14T03:50:25;11.10;99.90
18876;DHT22;9570;50.854;13.778;2022-10-14T03:52:50;11.10;99.90
18876;DHT22;9570;50.854;13.778;2022-10-14T03:55:16;11.10;99.90
18876;DHT22;9570;50.854;13.778;2022-10-14T03:57:42;11.10;99.90
18876;DHT22;9570;50.854;13.778;2022-10-14T04:00:08;11.20;99.90
18876;DHT22;9570;50.854;13.778;2022-10-14T04:02:33;11.10;99.90
18876;DHT22;9570;50.854;13.778;2022-10-14T04:04:59;11.10;99.90
18876;DHT22;9570;50.854;13.778;2022-10-14T04:07:25;11.00;99.90
18876;DHT22;9570;50.854;13.778;2022-10-14T04:09:50;11.00;99.90
18876;DHT22;9570;50.854;13.778;2022-10-14T04:12:16;11.00;99.90
18876;DHT22;9570;50.854;13.778;2022-10-14T04:14:41;11.00;99.90
18876;DHT22;9570;50.854;13.778;2022-10-14T04:17:07;11.00;99.90
18876;DHT22;9570;50.854;13.778;2022-10-14T04:19:32;11.00;99.90
18876;DHT22;9570;50.854;13.778;2022-10-14T04:21:58;11.00;99.90
18876;DHT22;9570;50.854;13.778;2022-10-14T04:24:23;11.00;99.90
18876;DHT22;9570;50.854;13.778;2022-10-14T04:26:50;11.00;99.90
18876;DHT22;9570;50.854;13.778;2022-10-14T04:29:16;11.00;99.90
18876;DHT22;9570;50.854;13.778;2022-10-14T04:31:42;11.00;99.90
18876;DHT22;9570;50.854;13.778;2022-10-14T04:34:09;11.00;99.90
18876;DHT22;9570;50.854;13.778;2022-10-14T04:36:35;11.00;99.90
18876;DHT22;9570;50.854;13.778;2022-10-14T04:39:00;11.00;99.90
18876;DHT22;9570;50.854;13.778;2022-10-14T04:41:26;11.00;99.90
18876;DHT22;9570;50.854;13.778;2022-10-14T04:43:52;11.00;99.90
18876;DHT22;9570;50.854;13.778;2022-10-14T04:46:17;11.00;99.90
18876;DHT22;9570;50.854;13.778;2022-10-14T04:48:43;11.00;99.90
18876;DHT22;9570;50.854;13.778;2022-10-14T04:51:08;11.00;99.90
18876;DHT22;9570;50.854;13.778;2022-10-14T04:53:34;11.00;99.90
18876;DHT22;9570;50.854;13.778;2022-10-14T04:55:59;11.00;99.90
18876;DHT22;9570;50.854;13.778;2022-10-14T04:58:25;10.90;99.90
18876;DHT22;9570;50.854;13.778;2022-10-14T05:00:53;10.90;99.90
18876;DHT22;9570;50.854;13.778;2022-10-14T05:03:19;11.00;99.90
18876;DHT22;9570;50.854;13.778;2022-10-14T05:05:44;10.90;99.90
18876;DHT22;9570;50.854;13.778;2022-10-14T05:08:10;10.90;99.90
18876;DHT22;9570;50.854;13.778;2022-10-14T05:10:36;10.90;99.90
18876;DHT22;9570;50.854;13.778;2022-10-14T05:13:02;10.90;99.90
18876;DHT22;9570;50.854;13.778;2022-10-14T05:15:27;10.90;99.90
18876;DHT22;9570;50.854;13.778;2022-10-14T05:17:53;10.90;99.90
18876;DHT22;9570;50.854;13.778;2022-10-14T05:20:19;10.90;99.90
18876;DHT22;9570;50.854;13.778;2022-10-14T05:22:44;10.90;99.90
18876;DHT22;9570;50.854;13.778;2022-10-14T05:25:10;10.80;99.90
18876;DHT22;9570;50.854;13.778;2022-10-14T05:27:36;10.80;99.90
18876;DHT22;9570;50.854;13.778;2022-10-14T05:30:02;10.70;99.90
18876;DHT22;9570;50.854;13.778;2022-10-14T05:32:28;10.70;99.90
18876;DHT22;9570;50.854;13.778;2022-10-14T05:34:53;10.70;99.90
18876;DHT22;9570;50.854;13.778;2022-10-14T05:37:19;10.70;99.90
18876;DHT22;9570;50.854;13.778;2022-10-14T05:39:45;10.70;99.90
18876;DHT22;9570;50.854;13.778;2022-10-14T05:42:10;10.80;99.90
18876;DHT22;9570;50.854;13.778;2022-10-14T05:44:36;10.70;99.90
18876;DHT22;9570;50.854;13.778;2022-10-14T05:47:01;10.60;99.90
18876;DHT22;9570;50.854;13.778;2022-10-14T05:49:27;10.70;99.90
18876;DHT22;9570;50.854;13.778;2022-10-14T05:51:52;10.80;99.90
18876;DHT22;9570;50.854;13.778;2022-10-14T05:54:18;10.70;99.90
18876;DHT22;9570;50.854;13.778;2022-10-14T05:56:43;10.80;99.90
18876;DHT22;9570;50.854;13.778;2022-10-14T05:59:10;10.80;99.90
18876;DHT22;9570;50.854;13.778;2022-10-14T06:01:36;10.80;99.90
18876;DHT22;9570;50.854;13.778;2022-10-14T06:04:03;10.80;99.90
18876;DHT22;9570;50.854;13.778;2022-10-14T06:06:28;10.80;99.90
18876;DHT22;9570;50.854;13.778;2022-10-14T06:08:55;10.70;99.90
18876;DHT22;9570;50.854;13.778;2022-10-14T06:11:21;10.60;99.90
18876;DHT22;9570;50.854;13.778;2022-10-14T06:13:46;10.60;99.90
18876;DHT22;9570;50.854;13.778;2022-10-14T06:16:12;10.60;99.90
18876;DHT22;9570;50.854;13.778;2022-10-14T06:18:38;10.70;99.90
18876;DHT22;9570;50.854;13.778;2022-10-14T06:21:04;10.70;99.90
18876;DHT22;9570;50.854;13.778;2022-10-14T06:23:30;10.90;99.90
18876;DHT22;9570;50.854;13.778;2022-10-14T06:25:55;11.00;99.90
18876;DHT22;9570;50.854;13.778;2022-10-14T06:28:21;11.00;99.90
18876;DHT22;9570;50.854;13.778;2022-10-14T06:30:53;11.10;99.90
18876;DHT22;9570;50.854;13.778;2022-10-14T06:33:20;11.20;99.90
18876;DHT22;9570;50.854;13.778;2022-10-14T06:35:46;11.30;99.90
18876;DHT22;9570;50.854;13.778;2022-10-14T06:38:12;11.30;99.90
18876;DHT22;9570;50.854;13.778;2022-10-14T06:40:38;11.30;99.90
18876;DHT22;9570;50.854;13.778;2022-10-14T06:43:04;11.40;99.90
18876;DHT22;9570;50.854;13.778;2022-10-14T06:45:29;11.30;99.90
18876;DHT22;9570;50.854;13.778;2022-10-14T06:47:55;11.40;99.90
18876;DHT22;9570;50.854;13.778;2022-10-14T06:50:21;11.50;99.90
18876;DHT22;9570;50.854;13.778;2022-10-14T06:52:46;11.50;99.90
18876;DHT22;9570;50.854;13.778;2022-10-14T06:55:13;11.60;99.90
18876;DHT22;9570;50.854;13.778;2022-10-14T06:57:38;11.80;99.90
18876;DHT22;9570;50.854;13.778;2022-10-14T07:00:05;11.90;99.90
18876;DHT22;9570;50.854;13.778;2022-10-14T07:02:31;11.90;99.90
18876;DHT22;9570;50.854;13.778;2022-10-14T07:04:56;11.90;99.90
18876;DHT22;9570;50.854;13.778;2022-10-14T07:07:22;12.00;99.90
18876;DHT22;9570;50.854;13.778;2022-10-14T07:09:47;12.00;99.90
18876;DHT22;9570;50.854;13.778;2022-10-14T07:12:13;12.10;99.90
18876;DHT22;9570;50.854;13.778;2022-10-14T07:14:39;12.20;99.90
18876;DHT22;9570;50.854;13.778;2022-10-14T07:17:06;12.30;99.90
18876;DHT22;9570;50.854;13.778;2022-10-14T07:19:32;12.40;99.90
18876;DHT22;9570;50.854;13.778;2022-10-14T07:21:58;12.40;99.90
18876;DHT22;9570;50.854;13.778;2022-10-14T07:24:23;12.40;99.90
18876;DHT22;9570;50.854;13.778;2022-10-14T07:26:49;12.50;99.90
18876;DHT22;9570;50.854;13.778;2022-10-14T07:29:14;12.50;99.90
18876;DHT22;9570;50.854;13.778;2022-10-14T07:31:40;12.50;99.90
18876;DHT22;9570;50.854;13.778;2022-10-14T07:34:06;12.50;99.90
18876;DHT22;9570;50.854;13.778;2022-10-14T07:36:31;12.70;99.90
18876;DHT22;9570;50.854;13.778;2022-10-14T07:38:57;12.70;99.90
18876;DHT22;9570;50.854;13.778;2022-10-14T07:41:23;12.70;99.90
18876;DHT22;9570;50.854;13.778;2022-10-14T07:43:51;12.90;99.90
18876;DHT22;9570;50.854;13.778;2022-10-14T07:46:19;13.20;99.90
18876;DHT22;9570;50.854;13.778;2022-10-14T07:48:58;13.70;99.90
18876;DHT22;9570;50.854;13.778;2022-10-14T07:51:25;14.20;99.90
18876;DHT22;9570;50.854;13.778;2022-10-14T07:53:53;14.70;99.90
18876;DHT22;9570;50.854;13.778;2022-10-14T07:56:20;15.00;99.90
18876;DHT22;9570;50.854;13.778;2022-10-14T07:58:46;15.00;99.90
18876;DHT22;9570;50.854;13.778;2022-10-14T08:01:12;15.10;99.90
18876;DHT22;9570;50.854;13.778;2022-10-14T08:03:40;15.00;99.90
18876;DHT22;9570;50.854;13.778;2022-10-14T08:06:06;14.90;99.90
18876;DHT22;9570;50.854;13.778;2022-10-14T08:08:31;14.90;99.90
18876;DHT22;9570;50.854;13.778;2022-10-14T08:11:11;14.80;99.90
18876;DHT22;9570;50.854;13.778;2022-10-14T08:13:38;14.90;99.90
18876;DHT22;9570;50.854;13.778;2022-10-14T08:16:16;14.90;99.90
18876;DHT22;9570;50.854;13.778;2022-10-14T08:18:42;15.00;99.90
18876;DHT22;9570;50.854;13.778;2022-10-14T08:21:07;15.00;99.90
18876;DHT22;9570;50.854;13.778;2022-10-14T08:23:33;15.00;99.90
18876;DHT22;9570;50.854;13.778;2022-10-14T08:25:58;15.10;99.90
18876;DHT22;9570;50.854;13.778;2022-10-14T08:28:24;15.10;99.90
18876;DHT22;9570;50.854;13.778;2022-10-14T08:30:49;15.20;99.90
18876;DHT22;9570;50.854;13.778;2022-10-14T08:33:17;15.30;99.90
18876;DHT22;9570;50.854;13.778;2022-10-14T08:35:42;15.20;99.90
18876;DHT22;9570;50.854;13.778;2022-10-14T08:38:10;15.10;99.90
18876;DHT22;9570;50.854;13.778;2022-10-14T08:41:05;15.10;99.90
18876;DHT22;9570;50.854;13.778;2022-10-14T08:43:36;15.00;99.90
18876;DHT22;9570;50.854;13.778;2022-10-14T08:46:23;15.00;99.90
18876;DHT22;9570;50.854;13.778;2022-10-14T08:49:05;14.90;99.90
18876;DHT22;9570;50.854;13.778;2022-10-14T08:51:34;14.80;99.90
18876;DHT22;9570;50.854;13.778;2022-10-14T08:54:05;14.70;99.90
18876;DHT22;9570;50.854;13.778;2022-10-14T08:56:35;14.50;99.90
18876;DHT22;9570;50.854;13.778;2022-10-14T08:59:06;14.50;99.90
18876;DHT22;9570;50.854;13.778;2022-10-14T09:04:22;14.50;99.90
18876;DHT22;9570;50.854;13.778;2022-10-14T09:06:48;14.60;99.90
18876;DHT22;9570;50.854;13.778;2022-10-14T09:09:25;14.60;99.90
18876;DHT22;9570;50.854;13.778;2022-10-14T09:11:56;14.60;99.90
18876;DHT22;9570;50.854;13.778;2022-10-14T09:14:26;14.60;99.90
18876;DHT22;9570;50.854;13.778;2022-10-14T09:16:59;14.60;99.90
18876;DHT22;9570;50.854;13.778;2022-10-14T09:19:40;14.60;99.90
18876;DHT22;9570;50.854;13.778;2022-10-14T09:22:13;14.70;99.90
18876;DHT22;9570;50.854;13.778;2022-10-14T09:24:39;14.70;99.90
18876;DHT22;9570;50.854;13.778;2022-10-14T09:27:12;14.70;99.90
18876;DHT22;9570;50.854;13.778;2022-10-14T09:29:53;14.60;99.90
18876;DHT22;9570;50.854;13.778;2022-10-14T09:32:35;14.60;99.90
18876;DHT22;9570;50.854;13.778;2022-10-14T09:35:03;14.70;99.90
18876;DHT22;9570;50.854;13.778;2022-10-14T09:37:33;14.80;99.90
18876;DHT22;9570;50.854;13.778;2022-10-14T09:40:08;14.80;99.90
18876;DHT22;9570;50.854;13.778;2022-10-14T09:42:56;14.90;99.90
18876;DHT22;9570;50.854;13.778;2022-10-14T09:45:23;14.90;99.90
18876;DHT22;9570;50.854;13.778;2022-10-14T09:47:52;14.90;99.90
18876;DHT22;9570;50.854;13.778;2022-10-14T09:51:08;14.80;99.90
18876;DHT22;9570;50.854;13.778;2022-10-14T09:55:51;14.80;99.90
18876;DHT22;9570;50.854;13.778;2022-10-14T09:58:42;14.80;99.90
18876;DHT22;9570;50.854;13.778;2022-10-14T10:01:06;14.80;99.90
18876;DHT22;9570;50.854;13.778;2022-10-14T10:03:38;14.80;99.90
18876;DHT22;9570;50.854;13.778;2022-10-14T10:06:08;14.80;99.90
18876;DHT22;9570;50.854;13.778;2022-10-14T10:08:37;14.90;99.90
18876;DHT22;9570;50.854;13.778;2022-10-14T10:11:06;15.00;99.90
18876;DHT22;9570;50.854;13.778;2022-10-14T10:13:52;15.10;99.90
18876;DHT22;9570;50.854;13.778;2022-10-14T10:16:22;15.20;99.90
18876;DHT22;9570;50.854;13.778;2022-10-14T10:18:49;15.30;99.90
18876;DHT22;9570;50.854;13.778;2022-10-14T10:21:24;15.50;99.90
18876;DHT22;9570;50.854;13.778;2022-10-14T10:23:59;15.40;99.90
18876;DHT22;9570;50.854;13.778;2022-10-14T10:26:28;15.50;99.90
18876;DHT22;9570;50.854;13.778;2022-10-14T10:28:57;15.40;99.90
18876;DHT22;9570;50.854;13.778;2022-10-14T10:37:04;15.50;99.90
18876;DHT22;9570;50.854;13.778;2022-10-14T10:39:47;15.60;99.90
18876;DHT22;9570;50.854;13.778;2022-10-14T10:42:53;15.60;99.90
18876;DHT22;9570;50.854;13.778;2022-10-14T10:45:37;15.50;99.90
18876;DHT22;9570;50.854;13.778;2022-10-14T10:51:08;15.40;99.90
18876;DHT22;9570;50.854;13.778;2022-10-14T10:54:04;15.40;99.90
18876;DHT22;9570;50.854;13.778;2022-10-14T11:04:28;16.00;99.90
18876;DHT22;9570;50.854;13.778;2022-10-14T11:13:22;15.70;99.90
18876;DHT22;9570;50.854;13.778;2022-10-14T11:16:03;15.60;99.90
18876;DHT22;9570;50.854;13.778;2022-10-14T11:25:01;15.60;99.90
18876;DHT22;9570;50.854;13.778;2022-10-14T11:27:47;15.70;99.90
18876;DHT22;9570;50.854;13.778;2022-10-14T11:30:22;15.60;99.90
18876;DHT22;9570;50.854;13.778;2022-10-14T11:36:05;15.50;99.90
18876;DHT22;9570;50.854;13.778;2022-10-14T11:47:08;15.60;99.90
18876;DHT22;9570;50.854;13.778;2022-10-14T11:49:59;15.70;99.90
18876;DHT22;9570;50.854;13.778;2022-10-14T11:52:32;15.70;99.90
18876;DHT22;9570;50.854;13.778;2022-10-14T11:55:11;15.70;99.90
18876;DHT22;9570;50.854;13.778;2022-10-14T11:57:45;15.70;99.90
18876;DHT22;9570;50.854;13.778;2022-10-14T12:05:58;15.90;99.90
18876;DHT22;9570;50.854;13.778;2022-10-14T12:14:32;15.50;99.90
18876;DHT22;9570;50.854;13.778;2022-10-14T12:16:59;15.40;99.90
18876;DHT22;9570;50.854;13.778;2022-10-14T12:19:27;15.40;99.90
18876;DHT22;9570;50.854;13.778;2022-10-14T12:22:07;15.30;99.90
18876;DHT22;9570;50.854;13.778;2022-10-14T12:24:47;15.30;99.90
18876;DHT22;9570;50.854;13.778;2022-10-14T12:27:15;15.30;99.90
18876;DHT22;9570;50.854;13.778;2022-10-14T12:29:45;15.30;99.90
18876;DHT22;9570;50.854;13.778;2022-10-14T12:32:18;15.30;99.90
18876;DHT22;9570;50.854;13.778;2022-10-14T12:34:45;15.40;99.90
18876;DHT22;9570;50.854;13.778;2022-10-14T12:42:35;15.40;99.90
18876;DHT22;9570;50.854;13.778;2022-10-14T12:45:12;15.50;99.90
18876;DHT22;9570;50.854;13.778;2022-10-14T12:47:39;15.70;99.90
18876;DHT22;9570;50.854;13.778;2022-10-14T12:50:28;15.70;99.90
18876;DHT22;9570;50.854;13.778;2022-10-14T12:52:58;15.80;99.90
18876;DHT22;9570;50.854;13.778;2022-10-14T12:55:26;15.90;99.90
18876;DHT22;9570;50.854;13.778;2022-10-14T12:57:59;15.90;99.90
18876;DHT22;9570;50.854;13.778;2022-10-14T13:02:53;15.90;99.90
18876;DHT22;9570;50.854;13.778;2022-10-14T13:05:37;16.00;99.90
18876;DHT22;9570;50.854;13.778;2022-10-14T13:08:43;16.00;99.90
18876;DHT22;9570;50.854;13.778;2022-10-14T13:11:12;16.00;99.90
18876;DHT22;9570;50.854;13.778;2022-10-14T13:26:56;16.00;99.90
18876;DHT22;9570;50.854;13.778;2022-10-14T13:29:38;15.90;99.90
18876;DHT22;9570;50.854;13.778;2022-10-14T13:35:16;16.00;99.90
18876;DHT22;9570;50.854;13.778;2022-10-14T13:37:59;16.00;99.90
18876;DHT22;9570;50.854;13.778;2022-10-14T13:40:31;16.00;99.90
18876;DHT22;9570;50.854;13.778;2022-10-14T13:43:12;16.00;99.90
18876;DHT22;9570;50.854;13.778;2022-10-14T13:45:42;15.90;99.90
18876;DHT22;9570;50.854;13.778;2022-10-14T13:48:14;15.90;99.90
18876;DHT22;9570;50.854;13.778;2022-10-14T13:50:41;15.90;99.90
18876;DHT22;9570;50.854;13.778;2022-10-14T13:53:16;15.90;99.90
18876;DHT22;9570;50.854;13.778;2022-10-14T13:55:45;15.90;99.90
18876;DHT22;9570;50.854;13.778;2022-10-14T13:58:16;15.90;99.90
18876;DHT22;9570;50.854;13.778;2022-10-14T14:03:36;16.00;99.90
18876;DHT22;9570;50.854;13.778;2022-10-14T14:06:12;16.10;99.90
18876;DHT22;9570;50.854;13.778;2022-10-14T14:08:51;16.10;99.90
18876;DHT22;9570;50.854;13.778;2022-10-14T14:11:29;16.10;99.90
18876;DHT22;9570;50.854;13.778;2022-10-14T14:13:58;16.00;99.90
18876;DHT22;9570;50.854;13.778;2022-10-14T14:16:36;16.00;99.90
18876;DHT22;9570;50.854;13.778;2022-10-14T14:19:04;16.00;99.90
18876;DHT22;9570;50.854;13.778;2022-10-14T14:21:31;16.10;99.90
18876;DHT22;9570;50.854;13.778;2022-10-14T14:23:58;16.20;99.90
18876;DHT22;9570;50.854;13.778;2022-10-14T14:26:36;16.10;99.90
18876;DHT22;9570;50.854;13.778;2022-10-14T14:29:05;16.10;99.90
18876;DHT22;9570;50.854;13.778;2022-10-14T14:31:32;16.10;99.90
18876;DHT22;9570;50.854;13.778;2022-10-14T14:33:58;16.00;99.90
18876;DHT22;9570;50.854;13.778;2022-10-14T14:36:27;16.10;99.90
18876;DHT22;9570;50.854;13.778;2022-10-14T14:38:58;16.10;99.90
18876;DHT22;9570;50.854;13.778;2022-10-14T14:41:29;16.10;99.90
18876;DHT22;9570;50.854;13.778;2022-10-14T14:44:00;16.10;99.90
18876;DHT22;9570;50.854;13.778;2022-10-14T14:46:36;16.00;99.90
18876;DHT22;9570;50.854;13.778;2022-10-14T14:49:03;15.90;99.90
18876;DHT22;9570;50.854;13.778;2022-10-14T14:51:33;15.90;99.90
18876;DHT22;9570;50.854;13.778;2022-10-14T14:54:00;16.00;99.90
18876;DHT22;9570;50.854;13.778;2022-10-14T14:56:39;15.90;99.90
18876;DHT22;9570;50.854;13.778;2022-10-14T15:01:45;15.90;99.90
18876;DHT22;9570;50.854;13.778;2022-10-14T15:04:20;15.90;99.90
18876;DHT22;9570;50.854;13.778;2022-10-14T15:07:22;15.80;99.90
18876;DHT22;9570;50.854;13.778;2022-10-14T15:09:53;15.70;99.90
18876;DHT22;9570;50.854;13.778;2022-10-14T15:12:29;15.70;99.90
18876;DHT22;9570;50.854;13.778;2022-10-14T15:15:03;15.60;99.90
18876;DHT22;9570;50.854;13.778;2022-10-14T15:17:35;15.50;99.90
18876;DHT22;9570;50.854;13.778;2022-10-14T15:22:32;15.40;99.90
18876;DHT22;9570;50.854;13.778;2022-10-14T15:25:11;15.40;99.90
18876;DHT22;9570;50.854;13.778;2022-10-14T15:30:30;15.30;99.90
18876;DHT22;9570;50.854;13.778;2022-10-14T15:33:23;15.10;99.90
18876;DHT22;9570;50.854;13.778;2022-10-14T15:35:59;15.10;99.90
18876;DHT22;9570;50.854;13.778;2022-10-14T15:38:26;15.10;99.90
18876;DHT22;9570;50.854;13.778;2022-10-14T15:40:52;15.00;99.90
18876;DHT22;9570;50.854;13.778;2022-10-14T15:43:20;15.00;99.90
18876;DHT22;9570;50.854;13.778;2022-10-14T15:45:51;15.00;99.90
18876;DHT22;9570;50.854;13.778;2022-10-14T15:48:40;14.90;99.90
18876;DHT22;9570;50.854;13.778;2022-10-14T15:51:06;14.90;99.90
18876;DHT22;9570;50.854;13.778;2022-10-14T15:53:32;14.90;99.90
18876;DHT22;9570;50.854;13.778;2022-10-14T15:55:57;14.90;99.90
18876;DHT22;9570;50.854;13.778;2022-10-14T15:58:25;14.90;99.90
18876;DHT22;9570;50.854;13.778;2022-10-14T16:00:50;14.80;99.90
18876;DHT22;9570;50.854;13.778;2022-10-14T16:03:18;14.90;99.90
18876;DHT22;9570;50.854;13.778;2022-10-14T16:05:43;14.80;99.90
18876;DHT22;9570;50.854;13.778;2022-10-14T16:08:12;14.80;99.90
18876;DHT22;9570;50.854;13.778;2022-10-14T16:10:39;14.80;99.90
18876;DHT22;9570;50.854;13.778;2022-10-14T16:13:08;14.80;99.90
18876;DHT22;9570;50.854;13.778;2022-10-14T16:18:04;14.70;99.90
18876;DHT22;9570;50.854;13.778;2022-10-14T16:20:30;14.70;99.90
18876;DHT22;9570;50.854;13.778;2022-10-14T16:22:56;14.60;99.90
18876;DHT22;9570;50.854;13.778;2022-10-14T16:25:28;14.50;99.90
18876;DHT22;9570;50.854;13.778;2022-10-14T16:27:55;14.50;99.90
18876;DHT22;9570;50.854;13.778;2022-10-14T16:30:21;14.40;99.90
18876;DHT22;9570;50.854;13.778;2022-10-14T16:32:46;14.30;99.90
18876;DHT22;9570;50.854;13.778;2022-10-14T16:35:12;14.30;99.90
18876;DHT22;9570;50.854;13.778;2022-10-14T16:37:38;14.20;99.90
18876;DHT22;9570;50.854;13.778;2022-10-14T16:40:05;14.10;99.90
18876;DHT22;9570;50.854;13.778;2022-10-14T16:42:31;14.00;99.90
18876;DHT22;9570;50.854;13.778;2022-10-14T16:44:56;14.00;99.90
18876;DHT22;9570;50.854;13.778;2022-10-14T16:47:22;13.90;99.90
18876;DHT22;9570;50.854;13.778;2022-10-14T16:49:49;13.80;99.90
18876;DHT22;9570;50.854;13.778;2022-10-14T16:52:17;13.70;99.90
18876;DHT22;9570;50.854;13.778;2022-10-14T16:54:42;13.60;99.90
18876;DHT22;9570;50.854;13.778;2022-10-14T16:57:08;13.60;99.90
18876;DHT22;9570;50.854;13.778;2022-10-14T16:59:34;13.50;99.90
18876;DHT22;9570;50.854;13.778;2022-10-14T17:02:00;13.40;99.90
18876;DHT22;9570;50.854;13.778;2022-10-14T17:04:26;13.40;99.90
18876;DHT22;9570;50.854;13.778;2022-10-14T17:06:53;13.40;99.90
18876;DHT22;9570;50.854;13.778;2022-10-14T17:09:19;13.30;99.90
18876;DHT22;9570;50.854;13.778;2022-10-14T17:11:45;13.30;99.90
18876;DHT22;9570;50.854;13.778;2022-10-14T17:14:13;13.20;99.90
18876;DHT22;9570;50.854;13.778;2022-10-14T17:16:40;13.20;99.90
18876;DHT22;9570;50.854;13.778;2022-10-14T17:19:05;13.20;99.90
18876;DHT22;9570;50.854;13.778;2022-10-14T17:21:31;13.10;99.90
18876;DHT22;9570;50.854;13.778;2022-10-14T17:24:00;13.20;99.90
18876;DHT22;9570;50.854;13.778;2022-10-14T17:26:26;13.20;99.90
18876;DHT22;9570;50.854;13.778;2022-10-14T17:28:54;13.20;99.90
18876;DHT22;9570;50.854;13.778;2022-10-14T17:31:20;13.10;99.90
18876;DHT22;9570;50.854;13.778;2022-10-14T17:33:48;13.10;99.90
18876;DHT22;9570;50.854;13.778;2022-10-14T17:36:19;13.00;99.90
18876;DHT22;9570;50.854;13.778;2022-10-14T17:38:46;13.10;99.90
18876;DHT22;9570;50.854;13.778;2022-10-14T17:41:13;13.10;99.90
18876;DHT22;9570;50.854;13.778;2022-10-14T17:43:39;13.10;99.90
18876;DHT22;9570;50.854;13.778;2022-10-14T17:46:09;13.10;99.90
18876;DHT22;9570;50.854;13.778;2022-10-14T17:48:37;13.20;99.90
18876;DHT22;9570;50.854;13.778;2022-10-14T17:51:05;13.20;99.90